Terminal Aerodrome Forecast
Issued by NWS

Home | Current Version | Previous Version | Text Only | Print | Product List | Glossary On
Versions: 1 2 3 4 5 6 7 8 9 10 11 12 13 14 15 16 17 18 19 20 21 22 23 24 25 26 27 28 29 30 31 32 33 34 35 36 37 38 39 40
000
FTUS46 KPQR 181132
TAFONP
TAF
KONP 181132Z 1812/1912 VRB03KT P6SM SCT002 SCT025 OVC050
      TEMPO 1812/1816 4SM -SHRA BR SCT002 BKN025
     FM181800 28005KT 6SM BR VCSH SCT015 OVC035
     FM182100 30009KT P6SM SCT015 OVC030
     FM191000 VRB03KT 1SM BR OVC005=

USA.gov is the U.S. government's official web portal to all federal, state and local government web resources and services.